Terminal Aerodrome Forecast
Issued by NWS Duluth, MN

Home | Current Version | Previous Version | Text Only | Print | Product List | Glossary On
Versions: 1 2 3 4 5 6 7 8 9 10 11 12 13 14 15 16 17 18 19 20 21 22 23 24 25 26 27 28 29
000
FTUS43 KDLH 241122
TAFINL
TAF
KINL 241122Z 2412/2512 08005KT P6SM BKN003
     FM241500 15005KT P6SM OVC010
     FM241800 19008G14KT P6SM VCSH OVC015
     FM242000 28006KT 4SM -RA BR OVC007
     FM250100 30007KT 2SM RA BR OVC003
     FM250500 33004KT 1SM BR OVC003=

USA.gov is the U.S. government's official web portal to all federal, state and local government web resources and services.